Terminal Aerodrome Forecast
Issued by NWS

Home | Current Version | Previous Version | Text Only | Print | Product List | Glossary On
Versions: 1 2 3 4 5 6 7 8 9 10 11 12
000
FTUS45 KLKN 041738
TAFWMC
TAF
KWMC 041738Z 0418/0518 13010KT P6SM SCT120 BKN200
     FM042000 17015G25KT P6SM -SHRA VCTS BKN080CB
     FM050400 10010KT P6SM SCT080 BKN150=

USA.gov is the U.S. government's official web portal to all federal, state and local government web resources and services.